createdAt,value
2023-01-26T00:03:19.508Z,-0.03
2023-01-26T00:05:51.596Z,-0.08
2023-01-26T00:09:06.305Z,-0.12
2023-01-26T00:11:38.264Z,-0.18
2023-01-26T00:14:10.288Z,-0.11
2023-01-26T00:16:42.614Z,-0.12
2023-01-26T00:19:14.587Z,-0.26
2023-01-26T00:21:46.827Z,-0.35
2023-01-26T00:24:18.928Z,-0.30
2023-01-26T00:26:50.977Z,-0.38
2023-01-26T00:29:23.033Z,-0.22
2023-01-26T00:31:58.261Z,-0.14
2023-01-26T00:34:30.258Z,-0.15
2023-01-26T00:37:02.637Z,-0.13
2023-01-26T00:39:34.831Z,-0.10
2023-01-26T00:42:06.937Z,0.07
2023-01-26T00:44:40.574Z,-0.02
2023-01-26T00:47:14.439Z,0.04
2023-01-26T00:49:46.421Z,-0.07
2023-01-26T00:52:18.698Z,-0.09
2023-01-26T00:54:50.697Z,-0.18
2023-01-26T00:57:24.161Z,-0.18
2023-01-26T00:59:56.196Z,-0.10
2023-01-26T01:02:28.248Z,0.01
2023-01-26T01:05:00.293Z,0.03
2023-01-26T01:07:32.618Z,-0.01
2023-01-26T01:10:05.102Z,-0.10
2023-01-26T01:12:37.309Z,-0.14
2023-01-26T01:15:09.957Z,-0.06
2023-01-26T01:17:43.313Z,-0.04
2023-01-26T01:20:16.048Z,0.03
2023-01-26T01:22:48.212Z,-0.05
2023-01-26T01:25:20.284Z,-0.01
2023-01-26T01:28:06.499Z,-0.01
2023-01-26T01:30:38.898Z,-0.10
2023-01-26T01:33:10.961Z,-0.11
2023-01-26T01:35:43.030Z,-0.19
2023-01-26T01:38:17.500Z,-0.08
2023-01-26T01:40:49.563Z,-0.03
2023-01-26T01:43:22.172Z,0.02
2023-01-26T01:45:54.877Z,0.12
2023-01-26T01:49:04.327Z,0.01
2023-01-26T01:51:53.155Z,0.00
2023-01-26T01:55:07.593Z,-0.16
2023-01-26T01:57:51.794Z,-0.03
2023-01-26T02:00:24.980Z,-0.06
2023-01-26T02:03:14.653Z,-0.05
2023-01-26T02:05:59.117Z,-0.05
2023-01-26T02:08:41.619Z,-0.12
2023-01-26T02:11:23.053Z,-0.24
2023-01-26T02:13:56.896Z,-0.21
2023-01-26T02:16:28.950Z,-0.05
2023-01-26T02:19:01.447Z,0.10
2023-01-26T02:21:35.237Z,0.13
2023-01-26T02:24:26.016Z,0.24
2023-01-26T02:26:58.139Z,0.18
2023-01-26T02:29:30.489Z,0.15
2023-01-26T02:32:02.519Z,0.10
2023-01-26T02:34:34.985Z,0.04
2023-01-26T02:41:12.461Z,0.12
2023-01-26T02:44:39.816Z,-0.05
2023-01-26T02:47:14.890Z,-0.07
2023-01-26T02:49:47.188Z,-0.01
2023-01-26T02:52:23.011Z,0.05
2023-01-26T02:55:14.345Z,0.11
2023-01-26T02:57:46.989Z,0.18
2023-01-26T03:00:43.042Z,0.23
2023-01-26T03:03:26.817Z,0.32
2023-01-26T03:05:59.428Z,0.19
2023-01-26T03:08:37.227Z,0.27
2023-01-26T03:11:10.083Z,0.26
2023-01-26T03:14:06.182Z,0.34
2023-01-26T03:16:38.613Z,0.35
2023-01-26T03:19:33.025Z,0.37
2023-01-26T03:22:23.789Z,0.39
2023-01-26T03:25:14.898Z,0.41
2023-01-26T03:27:50.040Z,0.42
2023-01-26T03:30:22.050Z,0.36
2023-01-26T03:32:54.059Z,0.35
2023-01-26T03:35:26.113Z,0.28
2023-01-26T03:37:59.834Z,0.31
2023-01-26T03:40:50.842Z,0.37
2023-01-26T03:43:43.940Z,0.42
2023-01-26T03:46:34.896Z,0.40
2023-01-26T03:49:25.817Z,0.37
2023-01-26T03:52:16.247Z,0.40
2023-01-26T03:57:43.666Z,0.39
2023-01-26T04:00:16.327Z,0.46
2023-01-26T05:59:54.209Z,0.84
2023-01-26T06:02:29.210Z,0.86
2023-01-26T06:05:01.295Z,0.77
2023-01-26T06:07:33.406Z,0.78
2023-01-26T06:11:06.985Z,0.86
2023-01-26T06:13:38.962Z,0.81
2023-01-26T06:16:11.150Z,0.91
2023-01-26T06:18:44.405Z,0.94
2023-01-26T06:21:16.864Z,0.91
2023-01-26T06:23:51.580Z,0.90
2023-01-26T06:26:26.699Z,0.96
2023-01-26T06:28:58.926Z,0.98
2023-01-26T06:31:31.151Z,0.83
2023-01-26T06:34:03.492Z,0.84
2023-01-26T06:36:38.471Z,0.89
2023-01-26T06:39:13.088Z,0.89
2023-01-26T06:41:45.187Z,0.78
2023-01-26T06:44:17.178Z,0.84
2023-01-26T06:47:07.806Z,0.90
2023-01-26T06:49:39.919Z,0.88
2023-01-26T06:52:32.506Z,0.86
2023-01-26T06:55:05.539Z,0.91
2023-01-26T06:57:37.480Z,0.97
2023-01-26T07:00:12.125Z,0.89
2023-01-26T07:02:46.787Z,0.96
2023-01-26T07:05:18.937Z,1.00
2023-01-26T07:07:50.897Z,1.07
2023-01-26T07:10:31.731Z,1.10
2023-01-26T07:13:05.029Z,1.10
2023-01-26T07:15:37.177Z,1.09
2023-01-26T07:18:09.129Z,1.13
2023-01-26T07:21:39.238Z,1.07
2023-01-26T07:24:20.412Z,1.11
2023-01-26T07:30:45.519Z,1.17
2023-01-26T07:33:20.248Z,1.20
2023-01-26T07:36:07.937Z,1.26
2023-01-26T07:38:40.073Z,1.27
2023-01-26T07:41:13.480Z,1.24
2023-01-26T07:43:45.762Z,1.16
2023-01-26T07:46:18.136Z,1.09
2023-01-26T07:48:50.971Z,1.10
2023-01-26T07:51:23.659Z,1.13
2023-01-26T07:54:00.440Z,1.21
2023-01-26T07:56:32.661Z,1.32
2023-01-26T07:59:08.246Z,1.29
2023-01-26T08:01:40.326Z,1.32
2023-01-26T08:04:36.348Z,1.28
2023-01-26T08:07:08.422Z,1.27
2023-01-26T08:09:40.882Z,1.33
2023-01-26T08:12:12.925Z,1.40
2023-01-26T08:14:47.182Z,1.51
2023-01-26T08:17:19.633Z,1.50
2023-01-26T08:19:51.782Z,1.48
2023-01-26T08:22:23.853Z,1.47
2023-01-26T08:24:55.990Z,1.50
2023-01-26T08:27:28.185Z,1.51
2023-01-26T08:30:00.200Z,1.51
2023-01-26T08:32:32.390Z,1.55
2023-01-26T08:35:04.958Z,1.59
2023-01-26T08:37:37.063Z,1.59
2023-01-26T08:40:10.956Z,1.44
2023-01-26T08:42:43.163Z,1.48
2023-01-26T08:45:16.101Z,1.52
2023-01-26T08:47:51.562Z,1.58
2023-01-26T08:50:24.378Z,1.62
2023-01-26T08:52:57.154Z,1.72
2023-01-26T08:55:29.856Z,1.73
2023-01-26T08:58:01.959Z,1.80
2023-01-26T09:00:34.334Z,1.77
2023-01-26T09:03:07.188Z,1.76
2023-01-26T09:05:40.590Z,1.81
2023-01-26T09:08:12.629Z,1.82
2023-01-26T09:10:54.038Z,1.82
2023-01-26T09:13:26.205Z,1.85
2023-01-26T09:15:58.523Z,1.88
2023-01-26T09:18:30.489Z,1.93
2023-01-26T09:21:08.313Z,1.96
2023-01-26T09:23:40.277Z,2.02
2023-01-26T09:26:12.688Z,2.01
2023-01-26T09:28:45.085Z,2.08
2023-01-26T09:31:17.588Z,2.13
2023-01-26T09:33:51.316Z,2.14
2023-01-26T09:36:23.533Z,2.11
2023-01-26T09:38:55.705Z,2.08
2023-01-26T09:41:52.506Z,2.15
2023-01-26T09:44:27.555Z,2.25
2023-01-26T09:47:22.154Z,2.37
2023-01-26T09:50:02.876Z,2.47
2023-01-26T09:53:01.764Z,2.50
2023-01-26T09:55:45.709Z,2.53
2023-01-26T09:58:38.617Z,2.55
2023-01-26T10:01:31.843Z,2.52
2023-01-26T10:04:23.395Z,2.53
2023-01-26T10:06:58.030Z,2.57
2023-01-26T10:09:35.134Z,2.64
2023-01-26T10:12:26.433Z,2.69
2023-01-26T10:15:32.780Z,2.75
2023-01-26T10:18:31.915Z,2.81
2023-01-26T10:21:11.091Z,2.81
2023-01-26T10:23:49.130Z,2.90
2023-01-26T10:26:24.631Z,3.00
2023-01-26T10:28:56.806Z,3.03
2023-01-26T10:31:32.863Z,3.08
2023-01-26T10:38:34.188Z,3.15
2023-01-26T10:41:14.264Z,3.17
2023-01-26T10:43:57.168Z,3.13
2023-01-26T10:46:38.136Z,3.25
2023-01-26T10:49:10.311Z,3.34
2023-01-26T10:51:47.067Z,3.41
2023-01-26T10:54:28.887Z,3.51
2023-01-26T10:57:29.377Z,3.62
2023-01-26T11:00:08.726Z,3.66
2023-01-26T11:02:52.867Z,3.68
2023-01-26T11:05:27.091Z,3.72
2023-01-26T11:08:00.567Z,3.76
2023-01-26T11:10:35.037Z,3.73
2023-01-26T11:13:20.782Z,3.80
2023-01-26T11:19:56.709Z,3.83
2023-01-26T11:22:54.960Z,3.90
2023-01-26T11:26:01.354Z,3.97
2023-01-26T11:29:02.890Z,3.93
2023-01-26T11:31:52.813Z,3.92
2023-01-26T11:34:55.076Z,3.88
2023-01-26T11:37:52.441Z,3.94
2023-01-26T11:41:05.076Z,3.97
2023-01-26T11:44:08.791Z,4.00
2023-01-26T11:46:57.702Z,4.12
2023-01-26T11:50:25.027Z,4.22
2023-01-26T11:53:37.531Z,4.29
2023-01-26T11:56:35.365Z,4.34
2023-01-26T11:59:18.559Z,4.37
2023-01-26T12:02:05.153Z,4.31
2023-01-26T12:04:45.556Z,4.39
2023-01-26T12:07:28.826Z,4.40
2023-01-26T12:10:05.371Z,4.41
2023-01-26T12:12:42.944Z,4.46
2023-01-26T12:15:30.089Z,4.50
2023-01-26T12:18:10.053Z,4.53
2023-01-26T12:21:10.852Z,4.55
2023-01-26T12:24:00.402Z,4.56
2023-01-26T12:26:37.518Z,4.55
2023-01-26T12:29:23.647Z,4.62
2023-01-26T12:40:30.488Z,4.92
2023-01-26T12:43:36.936Z,5.14
2023-01-26T12:46:15.208Z,5.25
2023-01-26T12:49:43.647Z,5.35
2023-01-26T12:52:48.813Z,5.52
2023-01-26T12:55:30.968Z,5.68
2023-01-26T12:58:27.129Z,5.74
2023-01-26T13:01:15.443Z,5.81
2023-01-26T13:03:56.260Z,5.88
2023-01-26T13:06:29.428Z,5.90
2023-01-26T13:09:21.796Z,5.96
2023-01-26T13:11:59.859Z,5.98
2023-01-26T13:14:35.191Z,6.03
2023-01-26T13:17:16.650Z,6.10
2023-01-26T13:19:48.821Z,6.16
2023-01-26T13:22:24.042Z,6.03
2023-01-26T13:24:56.030Z,5.96
2023-01-26T13:27:40.434Z,5.95
2023-01-26T13:30:27.662Z,5.89
2023-01-26T13:33:25.913Z,5.89
2023-01-26T13:35:59.709Z,5.95
2023-01-26T13:38:42.959Z,6.00
2023-01-26T13:41:21.034Z,6.01
2023-01-26T13:44:05.055Z,6.02
2023-01-26T13:46:57.788Z,6.00
2023-01-26T13:49:40.869Z,6.04
2023-01-26T13:52:25.861Z,6.00
2023-01-26T13:55:03.310Z,6.00
2023-01-26T13:57:35.376Z,6.01
2023-01-26T14:00:13.629Z,6.00
2023-01-26T14:02:52.076Z,6.02
2023-01-26T14:05:24.197Z,5.99
2023-01-26T14:08:00.316Z,5.98
2023-01-26T14:10:42.838Z,6.00
2023-01-26T14:13:45.083Z,5.96
2023-01-26T14:17:06.957Z,5.99
2023-01-26T14:19:42.391Z,5.97
2023-01-26T14:22:15.703Z,6.01
2023-01-26T14:24:53.023Z,6.04
2023-01-26T14:27:36.707Z,6.11
2023-01-26T14:30:32.777Z,6.12
2023-01-26T14:33:15.335Z,6.14
2023-01-26T14:36:01.304Z,6.14
2023-01-26T14:38:49.832Z,6.14
2023-01-26T14:41:28.753Z,6.14
2023-01-26T14:44:06.141Z,6.15
2023-01-26T14:47:03.945Z,6.03
2023-01-26T14:49:54.152Z,6.06
2023-01-26T14:56:22.911Z,6.01
2023-01-26T14:58:55.503Z,6.03
2023-01-26T15:01:28.295Z,6.04
2023-01-26T15:07:35.217Z,6.08
2023-01-26T15:10:46.613Z,6.10
2023-01-26T15:13:31.852Z,6.15
2023-01-26T15:16:35.062Z,6.14
2023-01-26T15:19:08.076Z,6.10
2023-01-26T15:21:44.608Z,6.07
2023-01-26T15:24:16.833Z,6.03
2023-01-26T15:26:51.596Z,6.03
2023-01-26T15:29:31.081Z,6.01
2023-01-26T15:32:47.206Z,6.00
2023-01-26T15:35:29.065Z,6.00
2023-01-26T15:38:04.154Z,5.97
2023-01-26T15:40:36.399Z,6.00
2023-01-26T15:43:15.776Z,6.00
2023-01-26T15:45:54.381Z,6.01
2023-01-26T15:48:26.969Z,6.01
2023-01-26T15:50:59.061Z,6.00
2023-01-26T15:53:31.252Z,5.99
2023-01-26T15:56:03.367Z,5.98
2023-01-26T15:58:36.804Z,5.96
2023-01-26T16:01:16.170Z,5.95
2023-01-26T16:04:18.165Z,5.93
2023-01-26T16:07:56.416Z,5.89
2023-01-26T16:10:48.835Z,5.82
2023-01-26T16:16:28.059Z,5.76
2023-01-26T16:19:00.666Z,5.71
2023-01-26T16:21:36.290Z,5.74
2023-01-26T16:24:11.380Z,5.73
2023-01-26T16:26:43.413Z,5.70
2023-01-26T16:29:16.564Z,5.71
2023-01-26T16:31:48.984Z,5.74
2023-01-26T16:34:21.734Z,5.68
2023-01-26T16:36:54.030Z,5.70
2023-01-26T16:39:26.519Z,5.64
2023-01-26T16:42:00.622Z,5.69
2023-01-26T16:44:35.317Z,5.68
2023-01-26T16:51:28.379Z,5.66
2023-01-26T16:54:11.374Z,5.67
2023-01-26T16:57:06.907Z,5.63
2023-01-26T16:59:52.326Z,5.61
2023-01-26T17:03:08.722Z,5.62
2023-01-26T17:08:29.514Z,5.63
2023-01-26T17:11:02.967Z,5.58
2023-01-26T17:13:37.970Z,5.56
2023-01-26T17:16:25.566Z,5.54
2023-01-26T17:18:57.586Z,5.54
2023-01-26T17:21:29.554Z,5.52
2023-01-26T17:24:01.631Z,5.62
2023-01-26T17:26:33.678Z,5.57
2023-01-26T17:29:05.643Z,5.47
2023-01-26T17:31:37.699Z,5.46
2023-01-26T17:34:09.753Z,5.50
2023-01-26T17:36:43.072Z,5.51
2023-01-26T17:39:18.759Z,5.51
2023-01-26T17:41:50.859Z,5.52
2023-01-26T17:44:49.076Z,5.49
2023-01-26T17:47:21.111Z,5.49
2023-01-26T17:50:32.086Z,5.48
2023-01-26T17:53:04.126Z,5.49
2023-01-26T17:55:36.484Z,5.50
2023-01-26T17:58:11.057Z,5.48
2023-01-26T18:00:43.554Z,5.43
2023-01-26T18:03:29.563Z,5.45
2023-01-26T18:06:01.704Z,5.48
2023-01-26T18:08:33.837Z,5.46
2023-01-26T18:11:09.020Z,5.46
2023-01-26T18:13:51.959Z,5.47
2023-01-26T18:16:24.278Z,5.40
2023-01-26T18:21:37.053Z,5.39
2023-01-26T18:24:10.320Z,5.40
2023-01-26T18:27:30.958Z,5.41
2023-01-26T18:30:03.535Z,5.42
2023-01-26T18:32:37.103Z,5.41
2023-01-26T18:35:10.074Z,5.42
2023-01-26T18:37:42.265Z,5.41
2023-01-26T18:40:15.376Z,5.43
2023-01-26T18:46:23.827Z,5.34
2023-01-26T18:49:00.861Z,5.40
2023-01-26T18:52:57.236Z,5.35
2023-01-26T18:55:29.317Z,5.39
2023-01-26T18:58:20.321Z,5.48
2023-01-26T19:00:52.308Z,5.45
2023-01-26T19:06:12.406Z,5.46
2023-01-26T19:08:57.596Z,5.47
2023-01-26T19:11:33.492Z,5.46
2023-01-26T19:14:07.641Z,5.47
2023-01-26T19:16:42.272Z,5.48
2023-01-26T19:20:18.759Z,5.47
2023-01-26T19:22:54.141Z,5.52
2023-01-26T19:25:26.656Z,5.46
2023-01-26T19:27:58.640Z,5.33
2023-01-26T19:30:30.810Z,5.33
2023-01-26T19:33:21.319Z,5.28
2023-01-26T19:35:56.508Z,5.28
2023-01-26T19:39:50.226Z,5.27
2023-01-26T19:42:22.248Z,5.22
2023-01-26T19:46:18.424Z,5.09
2023-01-26T19:48:50.522Z,4.95
2023-01-26T19:51:26.190Z,4.93
2023-01-26T19:57:20.613Z,4.94
2023-01-26T20:00:26.379Z,4.93
2023-01-26T20:02:58.400Z,4.94
2023-01-26T20:05:30.382Z,4.98
2023-01-26T20:08:02.386Z,4.97
2023-01-26T20:10:36.894Z,4.99
2023-01-26T20:13:08.864Z,4.98
2023-01-26T20:15:50.304Z,5.00
2023-01-26T20:18:22.301Z,5.01
2023-01-26T20:21:51.149Z,5.01
2023-01-26T20:24:23.154Z,4.99
2023-01-26T20:26:57.602Z,5.02
2023-01-26T20:29:29.718Z,5.04
2023-01-26T20:32:01.998Z,5.06
2023-01-26T20:34:34.606Z,5.07
2023-01-26T20:37:23.422Z,5.09
2023-01-26T20:39:55.643Z,5.07
2023-01-26T20:42:51.838Z,5.03
2023-01-26T20:45:25.034Z,5.06
2023-01-26T20:47:57.136Z,5.06
2023-01-26T20:50:52.817Z,5.05
2023-01-26T20:53:24.892Z,5.07
2023-01-26T20:59:22.051Z,5.01
2023-01-26T21:01:54.092Z,5.01
2023-01-26T21:04:27.191Z,5.01
2023-01-26T21:06:59.207Z,5.05
2023-01-26T21:09:32.357Z,5.01
2023-01-26T21:15:50.554Z,4.95
2023-01-26T21:18:22.794Z,4.96
2023-01-26T21:20:58.706Z,4.98
2023-01-26T21:23:32.674Z,4.97
2023-01-26T21:26:09.757Z,5.06
2023-01-26T21:28:41.813Z,5.00
2023-01-26T21:31:15.342Z,4.90
2023-01-26T21:34:35.334Z,4.95
2023-01-26T21:37:08.450Z,4.96
2023-01-26T21:39:40.467Z,4.99
2023-01-26T21:42:13.842Z,5.01
2023-01-26T21:45:04.422Z,5.03
2023-01-26T21:47:36.407Z,4.99
2023-01-26T21:50:09.298Z,5.00
2023-01-26T21:53:19.651Z,4.99
2023-01-26T21:55:51.540Z,5.04
2023-01-26T21:58:41.853Z,4.96
2023-01-26T22:01:13.785Z,4.90
2023-01-26T22:05:04.036Z,4.97
2023-01-26T22:07:36.087Z,4.81
2023-01-26T22:10:14.984Z,4.92
2023-01-26T22:12:47.144Z,4.92
2023-01-26T22:15:19.467Z,4.96
2023-01-26T22:17:51.602Z,5.02
2023-01-26T22:20:23.558Z,4.99
2023-01-26T22:22:57.329Z,5.03
2023-01-26T22:25:29.363Z,5.09
2023-01-26T22:28:01.696Z,5.08
2023-01-26T22:30:34.636Z,5.09
2023-01-26T22:33:06.633Z,5.07
2023-01-26T22:35:38.673Z,5.07
2023-01-26T22:38:10.899Z,5.09
2023-01-26T22:40:42.852Z,5.09
2023-01-26T22:43:14.791Z,5.10
2023-01-26T22:45:46.854Z,5.12
2023-01-26T22:48:19.140Z,5.14
2023-01-26T22:50:51.149Z,5.21
2023-01-26T22:53:23.131Z,5.16
2023-01-26T22:55:55.159Z,5.13
2023-01-26T22:58:27.167Z,5.10
2023-01-26T23:01:13.499Z,5.15
2023-01-26T23:03:46.529Z,5.09
2023-01-26T23:06:18.797Z,5.12
2023-01-26T23:08:51.116Z,5.17
2023-01-26T23:11:27.653Z,5.22
2023-01-26T23:14:02.604Z,5.23
2023-01-26T23:16:34.669Z,5.22
2023-01-26T23:19:06.677Z,5.18
2023-01-26T23:21:38.710Z,5.20
2023-01-26T23:24:10.746Z,5.20
2023-01-26T23:26:43.175Z,5.26
2023-01-26T23:29:15.089Z,5.23
2023-01-26T23:31:47.480Z,5.22
2023-01-26T23:34:19.603Z,5.24
2023-01-26T23:36:53.329Z,5.26
2023-01-26T23:39:25.326Z,5.30
2023-01-26T23:41:57.321Z,5.30
2023-01-26T23:44:29.227Z,5.29
2023-01-26T23:47:01.321Z,5.27
2023-01-26T23:49:33.440Z,5.27
2023-01-26T23:52:05.374Z,5.32
2023-01-26T23:54:38.355Z,5.36
2023-01-26T23:57:10.313Z,5.31
2023-01-26T23:59:43.959Z,5.29
